Time;durP1;ratioP1;P1;durP2;ratioP2;P2;SDS_P1;SDS_P2;PMS_P1;PMS_P2;Temp;Humidity;BMP_temperature;BMP_pressure;BME280_temperature;BME280_humidity;BME280_pressure;Samples;Min_cycle;Max_cycle;Signal;HPM_P1;HPM_P2
2022/10/25 00:00:17;;;;;;;4.80;2.27;;;10.30;99.90;;;;;;5041427;28;20666;-88
2022/10/25 00:02:44;;;;;;;6.97;2.60;;;10.80;99.90;;;;;;5043590;28;21268;-88
2022/10/25 00:05:15;;;;;;;2.37;2.20;;;10.50;99.90;;;;;;5046789;28;20658;-87
2022/10/25 00:07:42;;;;;;;9.70;2.40;;;10.40;99.90;;;;;;5041098;28;20654;-88
2022/10/25 00:10:09;;;;;;;4.20;2.53;;;10.40;99.90;;;;;;5044140;28;20658;-88
2022/10/25 00:12:41;;;;;;;3.97;2.70;;;11.00;99.90;;;;;;5043789;28;20634;-88
2022/10/25 00:15:09;;;;;;;4.40;2.60;;;10.70;99.90;;;;;;5036990;28;20626;-88
2022/10/25 00:17:36;;;;;;;4.63;2.50;;;10.70;99.90;;;;;;5042852;28;20611;-88
2022/10/25 00:20:03;;;;;;;6.60;2.70;;;10.70;99.90;;;;;;5046166;28;20672;-88
2022/10/25 00:22:31;;;;;;;3.00;2.40;;;10.70;99.90;;;;;;5043625;28;20634;-88
2022/10/25 00:24:58;;;;;;;3.90;2.50;;;10.50;99.90;;;;;;5041037;28;20672;-89
2022/10/25 00:27:25;;;;;;;5.23;2.10;;;10.40;99.90;;;;;;5047804;28;20637;-88
2022/10/25 00:29:52;;;;;;;2.70;2.47;;;10.20;99.90;;;;;;5044187;28;20658;-88
2022/10/25 00:32:19;;;;;;;4.43;3.13;;;10.40;99.90;;;;;;5044733;28;20657;-89
2022/10/25 00:34:46;;;;;;;2.93;2.30;;;10.30;99.90;;;;;;5040143;28;20618;-88
2022/10/25 00:37:13;;;;;;;4.13;2.70;;;10.80;99.90;;;;;;5034235;28;20653;-88
2022/10/25 00:39:41;;;;;;;9.20;3.50;;;10.20;99.90;;;;;;5045314;28;20660;-88
2022/10/25 00:42:13;;;;;;;4.37;2.47;;;10.50;99.90;;;;;;5042194;28;20626;-89
2022/10/25 00:44:53;;;;;;;2.63;2.33;;;10.30;99.90;;;;;;5044192;28;20614;-88
2022/10/25 00:47:34;;;;;;;3.67;2.30;;;10.30;99.90;;;;;;5043253;28;20641;-89
2022/10/25 00:50:04;;;;;;;2.77;2.40;;;10.50;99.90;;;;;;5045638;28;20656;-89
2022/10/25 00:52:34;;;;;;;3.30;2.60;;;10.30;99.90;;;;;;5044627;28;20637;-88
2022/10/25 00:55:05;;;;;;;3.67;2.40;;;10.80;99.90;;;;;;5039785;28;20630;-88
2022/10/25 00:57:34;;;;;;;3.20;2.50;;;10.90;99.90;;;;;;5040544;28;20629;-88
2022/10/25 01:00:02;;;;;;;4.57;2.40;;;10.60;99.90;;;;;;5042176;28;20658;-88
2022/10/25 01:02:39;;;;;;;3.20;2.63;;;10.20;99.90;;;;;;5048157;28;20624;-88
2022/10/25 01:05:08;;;;;;;3.80;2.50;;;10.50;99.90;;;;;;5073119;28;20609;-88
2022/10/25 01:07:35;;;;;;;6.07;2.57;;;10.50;99.90;;;;;;5070018;28;20616;-89
2022/10/25 01:10:03;;;;;;;3.33;2.97;;;10.20;99.90;;;;;;5045522;28;20650;-89
2022/10/25 01:12:30;;;;;;;3.97;3.47;;;10.50;99.90;;;;;;5044854;28;20635;-88
2022/10/25 01:14:57;;;;;;;3.17;2.87;;;10.00;99.90;;;;;;5040481;28;20632;-89
2022/10/25 01:17:30;;;;;;;3.90;3.30;;;10.10;99.90;;;;;;5044813;28;20611;-89
2022/10/25 01:20:26;;;;;;;3.83;3.17;;;10.20;99.90;;;;;;5046569;28;20652;-88
2022/10/25 01:23:00;;;;;;;7.97;4.17;;;9.90;99.90;;;;;;5007219;28;21498;-89
2022/10/25 01:25:58;;;;;;;6.10;3.50;;;10.00;99.90;;;;;;5047486;28;21178;-89
2022/10/25 01:28:35;;;;;;;14.00;5.60;;;10.00;99.90;;;;;;5043442;28;20644;-89
2022/10/25 01:31:17;;;;;;;4.43;2.90;;;10.20;99.90;;;;;;5043206;28;21087;-89
2022/10/25 01:33:50;;;;;;;5.53;4.03;;;10.20;99.90;;;;;;5048266;28;20613;-88
2022/10/25 01:36:27;;;;;;;5.20;3.80;;;10.20;99.90;;;;;;5048587;28;20657;-89
2022/10/25 01:39:00;;;;;;;4.20;3.30;;;9.80;99.90;;;;;;5048868;28;20629;-88
2022/10/25 01:41:38;;;;;;;3.80;3.50;;;10.70;99.90;;;;;;5050951;28;20661;-89
2022/10/25 01:44:18;;;;;;;4.83;3.70;;;10.30;99.90;;;;;;5048197;28;21062;-90
2022/10/25 01:46:51;;;;;;;4.80;4.20;;;10.20;99.90;;;;;;5046546;28;21035;-89
2022/10/25 01:49:23;;;;;;;3.70;3.37;;;10.20;99.90;;;;;;5046388;28;20628;-89
2022/10/25 01:51:50;;;;;;;4.83;3.87;;;10.00;99.90;;;;;;5045843;28;20625;-89
2022/10/25 01:54:19;;;;;;;7.77;4.00;;;10.40;99.90;;;;;;5049597;28;20628;-88
2022/10/25 01:57:08;;;;;;;6.73;3.57;;;10.10;99.90;;;;;;5044773;28;20630;-88
2022/10/25 01:59:54;;;;;;;8.20;3.80;;;10.10;99.90;;;;;;5044090;28;20662;-88
2022/10/25 02:02:29;;;;;;;6.13;3.93;;;9.90;99.90;;;;;;5046691;28;20609;-88
2022/10/25 02:05:05;;;;;;;3.63;2.83;;;10.30;99.90;;;;;;5042989;28;20621;-89
2022/10/25 02:07:37;;;;;;;8.80;4.00;;;10.20;99.90;;;;;;5048788;28;20649;-88
2022/10/25 02:10:09;;;;;;;8.00;4.23;;;10.20;99.90;;;;;;5047302;28;20656;-89
2022/10/25 02:12:48;;;;;;;8.50;4.33;;;10.00;99.90;;;;;;5046076;28;20630;-88
2022/10/25 02:15:20;;;;;;;3.57;3.27;;;9.70;99.90;;;;;;5050408;28;20620;-88
2022/10/25 02:17:55;;;;;;;6.30;3.40;;;10.10;99.90;;;;;;5049920;28;20626;-89
2022/10/25 02:20:25;;;;;;;8.73;3.27;;;10.00;99.90;;;;;;5074997;28;20713;-88
2022/10/25 02:22:52;;;;;;;4.60;3.20;;;10.00;99.90;;;;;;5065467;28;21270;-89
2022/10/25 02:25:21;;;;;;;8.40;3.47;;;9.50;99.90;;;;;;5046515;28;20641;-88
2022/10/25 02:27:50;;;;;;;3.33;3.00;;;9.70;99.90;;;;;;5045152;28;20628;-88
2022/10/25 02:30:17;;;;;;;5.73;3.13;;;9.80;99.90;;;;;;5044176;28;20648;-89
2022/10/25 02:32:46;;;;;;;17.33;4.00;;;9.90;99.90;;;;;;5047535;28;20610;-88
2022/10/25 02:35:17;;;;;;;5.50;3.20;;;9.70;99.90;;;;;;5040972;28;20621;-88
2022/10/25 02:37:43;;;;;;;4.87;3.47;;;9.60;99.90;;;;;;5044846;28;20645;-89
2022/10/25 02:40:11;;;;;;;5.53;3.57;;;9.70;99.90;;;;;;5044762;28;20681;-89
2022/10/25 02:42:38;;;;;;;6.00;3.53;;;9.80;99.90;;;;;;5043473;28;21264;-88
2022/10/25 02:45:06;;;;;;;4.43;3.40;;;9.90;99.90;;;;;;5045031;28;20625;-88
2022/10/25 02:47:33;;;;;;;4.90;3.40;;;10.00;99.90;;;;;;5045359;28;20672;-89
2022/10/25 02:50:00;;;;;;;5.50;3.20;;;10.00;99.90;;;;;;5046203;28;20654;-88
2022/10/25 02:52:29;;;;;;;4.13;3.50;;;9.50;99.90;;;;;;5046759;28;20749;-88
2022/10/25 02:54:56;;;;;;;4.10;3.23;;;10.00;99.90;;;;;;5044111;28;20606;-88
2022/10/25 02:57:22;;;;;;;8.33;3.10;;;9.80;99.90;;;;;;5044026;28;20709;-89
2022/10/25 02:59:49;;;;;;;7.27;3.70;;;9.50;99.90;;;;;;5047136;28;20660;-88
2022/10/25 03:02:16;;;;;;;4.30;2.90;;;9.70;99.90;;;;;;5045524;28;21137;-88
2022/10/25 03:04:43;;;;;;;6.43;3.10;;;9.30;99.90;;;;;;5043723;28;20850;-88
2022/10/25 03:07:10;;;;;;;5.30;3.03;;;9.50;99.90;;;;;;5026045;28;20673;-89
2022/10/25 03:09:38;;;;;;;5.57;3.43;;;9.50;99.90;;;;;;5042999;28;20649;-88
2022/10/25 03:12:05;;;;;;;5.40;3.30;;;9.70;99.90;;;;;;5047042;28;20645;-88
2022/10/25 03:14:31;;;;;;;6.03;3.70;;;9.50;99.90;;;;;;5044153;28;20632;-88
2022/10/25 03:16:58;;;;;;;4.57;4.10;;;9.30;99.90;;;;;;5046074;28;20649;-89
2022/10/25 03:19:25;;;;;;;10.70;4.10;;;9.30;99.90;;;;;;5046471;28;20614;-88
2022/10/25 03:21:52;;;;;;;8.83;5.67;;;9.60;99.90;;;;;;5046290;28;20628;-88
2022/10/25 03:24:18;;;;;;;137.97;24.60;;;9.60;99.90;;;;;;5046613;28;20637;-88
2022/10/25 03:26:47;;;;;;;238.50;26.77;;;9.30;99.90;;;;;;5048983;28;20665;-88
2022/10/25 03:29:13;;;;;;;67.03;15.67;;;9.80;99.90;;;;;;5044839;28;20630;-87
2022/10/25 03:31:40;;;;;;;281.33;33.00;;;9.50;99.90;;;;;;5045732;28;20621;-88
2022/10/25 03:34:07;;;;;;;219.60;25.10;;;9.60;99.90;;;;;;5045061;28;20638;-88
2022/10/25 03:36:33;;;;;;;271.17;30.93;;;9.90;99.90;;;;;;5061984;28;20601;-88
2022/10/25 03:39:00;;;;;;;32.13;10.40;;;9.50;99.90;;;;;;5067237;28;20689;-88
2022/10/25 03:41:27;;;;;;;35.80;11.70;;;9.80;99.90;;;;;;5050683;28;20653;-88
2022/10/25 03:43:55;;;;;;;33.67;11.07;;;9.70;99.90;;;;;;5043629;28;21044;-88
2022/10/25 03:46:22;;;;;;;39.87;12.80;;;9.30;99.90;;;;;;5027834;28;20654;-88
2022/10/25 03:48:49;;;;;;;18.20;11.90;;;9.30;99.90;;;;;;5019068;28;20631;-87
2022/10/25 03:51:16;;;;;;;13.60;10.80;;;9.20;99.90;;;;;;5044005;28;20668;-88
2022/10/25 03:53:42;;;;;;;14.30;10.10;;;9.20;99.90;;;;;;5045906;28;20634;-88
2022/10/25 03:56:09;;;;;;;13.00;10.00;;;9.30;99.90;;;;;;5042938;28;20625;-88
2022/10/25 03:58:36;;;;;;;14.97;8.77;;;9.30;99.90;;;;;;5042376;28;20618;-88
2022/10/25 04:01:07;;;;;;;15.77;8.47;;;9.20;99.90;;;;;;5028724;28;20689;-89
2022/10/25 04:03:34;;;;;;;7.67;5.90;;;9.30;99.90;;;;;;5044320;28;20626;-88
2022/10/25 04:06:01;;;;;;;10.23;6.77;;;9.30;99.90;;;;;;5026784;28;20619;-88
2022/10/25 04:08:27;;;;;;;12.23;6.47;;;9.10;99.90;;;;;;5043194;28;20967;-88
2022/10/25 04:10:54;;;;;;;7.10;5.83;;;9.20;99.90;;;;;;5044776;28;20650;-88
2022/10/25 04:13:21;;;;;;;6.23;5.50;;;9.00;99.90;;;;;;5048366;28;20768;-88
2022/10/25 04:15:48;;;;;;;12.43;5.50;;;9.00;99.90;;;;;;5040554;28;20623;-88
2022/10/25 04:18:16;;;;;;;8.33;6.03;;;9.00;99.90;;;;;;5040572;28;20622;-88
2022/10/25 04:20:43;;;;;;;10.50;6.80;;;8.90;99.90;;;;;;5044061;28;21091;-88
2022/10/25 04:23:10;;;;;;;7.40;6.63;;;8.90;99.90;;;;;;5042887;28;20647;-87
2022/10/25 04:25:37;;;;;;;8.63;6.87;;;8.90;99.90;;;;;;5040835;28;20631;-88
2022/10/25 04:28:04;;;;;;;7.87;6.73;;;9.40;99.90;;;;;;5045839;28;20657;-87
2022/10/25 04:30:31;;;;;;;9.37;7.33;;;9.30;99.90;;;;;;5038620;28;20726;-88
2022/10/25 04:32:58;;;;;;;9.63;8.00;;;9.20;99.90;;;;;;5043321;28;20629;-88
2022/10/25 04:35:26;;;;;;;10.70;8.00;;;9.30;99.90;;;;;;5042689;28;20625;-87
2022/10/25 04:37:56;;;;;;;10.30;9.30;;;9.20;99.90;;;;;;5027166;28;21194;-87
2022/10/25 04:40:23;;;;;;;24.40;12.67;;;9.30;99.90;;;;;;5025580;28;20649;-87
2022/10/25 04:42:49;;;;;;;15.60;10.80;;;8.80;99.90;;;;;;5044505;28;20637;-87
2022/10/25 04:45:16;;;;;;;17.63;11.43;;;9.50;99.90;;;;;;5041267;28;20636;-87
2022/10/25 04:47:43;;;;;;;15.40;11.47;;;9.50;99.90;;;;;;5045045;28;20677;-87
2022/10/25 04:50:10;;;;;;;23.17;19.00;;;8.90;99.90;;;;;;5045708;28;20654;-87
2022/10/25 04:52:38;;;;;;;17.37;14.67;;;9.10;99.90;;;;;;5027361;28;20629;-88
2022/10/25 04:55:05;;;;;;;15.77;11.00;;;9.30;99.90;;;;;;5047549;28;20626;-87
2022/10/25 04:57:34;;;;;;;11.93;10.50;;;9.30;99.90;;;;;;5046916;28;20621;-86
2022/10/25 05:00:01;;;;;;;17.33;13.33;;;8.80;99.90;;;;;;5045574;28;20650;-87
2022/10/25 05:02:28;;;;;;;12.90;10.70;;;9.10;99.90;;;;;;5045872;28;21194;-87
2022/10/25 05:04:55;;;;;;;15.80;10.50;;;9.20;99.90;;;;;;5043879;28;20626;-87
2022/10/25 05:07:22;;;;;;;9.33;8.53;;;9.20;99.90;;;;;;5045821;28;20660;-86
2022/10/25 05:09:50;;;;;;;14.23;9.73;;;8.80;99.90;;;;;;5049246;28;20649;-87
2022/10/25 05:12:17;;;;;;;21.37;10.03;;;8.80;99.90;;;;;;5046620;28;20656;-87
2022/10/25 05:14:43;;;;;;;18.17;9.30;;;8.70;99.90;;;;;;5041620;28;20637;-87
2022/10/25 05:17:10;;;;;;;7.23;6.53;;;8.90;99.90;;;;;;5048241;28;20618;-87
2022/10/25 05:19:37;;;;;;;9.23;7.33;;;8.90;99.90;;;;;;5045313;28;21009;-87
2022/10/25 05:22:04;;;;;;;8.70;7.90;;;8.90;99.90;;;;;;5046854;28;20633;-87
2022/10/25 05:24:31;;;;;;;10.60;7.93;;;8.90;99.90;;;;;;5056334;28;21011;-87
2022/10/25 05:26:59;;;;;;;14.33;8.20;;;9.10;99.90;;;;;;5051325;28;20684;-86
2022/10/25 05:29:25;;;;;;;10.37;9.37;;;8.90;99.90;;;;;;5048957;28;20637;-87
2022/10/25 05:31:52;;;;;;;9.80;7.87;;;9.00;99.90;;;;;;5045876;28;20630;-87
2022/10/25 05:34:19;;;;;;;12.13;9.80;;;8.90;99.90;;;;;;5042448;28;20630;-88
2022/10/25 05:36:46;;;;;;;13.07;10.53;;;8.60;99.90;;;;;;5043819;28;20636;-87
2022/10/25 05:39:12;;;;;;;16.80;10.03;;;8.80;99.90;;;;;;5046182;28;20731;-87
2022/10/25 05:41:39;;;;;;;18.30;10.60;;;9.10;99.90;;;;;;5050941;28;20638;-88
2022/10/25 05:44:07;;;;;;;15.47;10.83;;;8.80;99.90;;;;;;5046696;28;20631;-87
2022/10/25 05:46:35;;;;;;;11.60;9.03;;;9.00;99.90;;;;;;5046359;28;20637;-87
2022/10/25 05:49:02;;;;;;;12.17;10.90;;;8.50;99.90;;;;;;5047710;28;20630;-88
2022/10/25 05:51:30;;;;;;;13.87;12.57;;;8.90;99.90;;;;;;5045232;28;20650;-87
2022/10/25 05:53:59;;;;;;;15.33;11.20;;;9.00;99.90;;;;;;5033476;28;20625;-87
2022/10/25 05:56:28;;;;;;;13.07;11.13;;;8.90;99.90;;;;;;5065357;28;20628;-88
2022/10/25 05:58:56;;;;;;;10.50;9.50;;;9.20;99.90;;;;;;5045231;28;20610;-87
2022/10/25 06:01:25;;;;;;;12.80;8.97;;;8.60;99.90;;;;;;5041002;28;20711;-87
2022/10/25 06:03:54;;;;;;;11.30;10.13;;;8.60;99.90;;;;;;5044567;28;20626;-87
2022/10/25 06:06:22;;;;;;;12.53;10.10;;;8.50;99.90;;;;;;5046791;28;20633;-87
2022/10/25 06:08:49;;;;;;;11.23;10.03;;;8.70;99.90;;;;;;5045070;28;20669;-87
2022/10/25 06:11:18;;;;;;;16.73;11.23;;;8.70;99.90;;;;;;5043124;28;20649;-88
2022/10/25 06:13:45;;;;;;;13.83;10.70;;;8.80;99.90;;;;;;5047279;28;21116;-89
2022/10/25 06:16:14;;;;;;;156.60;23.13;;;9.00;99.90;;;;;;5049108;28;20634;-89
2022/10/25 06:18:43;;;;;;;39.57;16.43;;;9.00;99.90;;;;;;5046767;28;20618;-88
2022/10/25 06:21:12;;;;;;;125.70;23.57;;;8.70;99.90;;;;;;5047553;28;20649;-88
2022/10/25 06:23:41;;;;;;;159.10;24.30;;;9.30;99.90;;;;;;5045522;28;20645;-88
2022/10/25 06:26:10;;;;;;;109.13;19.20;;;9.00;99.90;;;;;;5028984;28;20633;-88
2022/10/25 06:28:37;;;;;;;263.57;31.50;;;9.30;99.90;;;;;;5042238;28;20667;-89
2022/10/25 06:31:06;;;;;;;131.33;19.37;;;9.10;99.90;;;;;;5044731;28;20650;-88
2022/10/25 06:33:34;;;;;;;148.83;20.27;;;9.60;99.90;;;;;;5043660;28;20652;-88
2022/10/25 06:36:04;;;;;;;200.07;26.90;;;9.70;99.90;;;;;;5045311;28;20607;-88
2022/10/25 06:38:31;;;;;;;119.60;15.73;;;9.80;99.90;;;;;;5043476;28;20641;-88
2022/10/25 06:40:59;;;;;;;116.00;17.03;;;9.40;99.90;;;;;;5045116;28;20715;-88
2022/10/25 06:43:25;;;;;;;140.03;21.03;;;9.60;99.90;;;;;;5044224;28;20614;-88
2022/10/25 06:45:52;;;;;;;107.43;18.63;;;9.50;99.90;;;;;;5043829;28;20633;-88
2022/10/25 06:48:19;;;;;;;97.67;14.70;;;9.30;99.90;;;;;;5048164;28;20676;-87
2022/10/25 06:50:46;;;;;;;129.70;18.93;;;9.30;99.90;;;;;;5049802;28;20646;-88
2022/10/25 06:53:14;;;;;;;143.33;22.90;;;9.50;99.90;;;;;;5032055;28;21360;-88
2022/10/25 06:55:43;;;;;;;60.93;13.70;;;9.90;99.90;;;;;;5043078;28;20638;-88
2022/10/25 06:58:10;;;;;;;81.40;17.67;;;9.70;99.90;;;;;;5041192;28;20633;-88
2022/10/25 07:00:37;;;;;;;181.50;24.20;;;9.50;99.90;;;;;;5040963;28;20661;-88
2022/10/25 07:03:04;;;;;;;48.83;15.37;;;10.00;99.90;;;;;;5049598;28;20644;-87
2022/10/25 07:05:30;;;;;;;22.43;11.50;;;9.70;99.90;;;;;;5043352;28;20621;-87
2022/10/25 07:07:57;;;;;;;18.00;11.20;;;9.70;99.90;;;;;;5038768;28;20670;-87
2022/10/25 07:10:26;;;;;;;16.93;13.20;;;10.10;99.90;;;;;;5042190;28;20647;-88
2022/10/25 07:12:52;;;;;;;15.33;11.27;;;9.70;99.90;;;;;;5045462;28;20652;-88
2022/10/25 07:15:20;;;;;;;11.10;9.80;;;10.20;99.90;;;;;;5041600;28;20619;-88
2022/10/25 07:17:47;;;;;;;10.07;8.90;;;10.40;99.90;;;;;;5045277;28;21231;-88
2022/10/25 07:20:14;;;;;;;9.13;8.20;;;10.10;99.90;;;;;;5044025;28;20649;-88
2022/10/25 07:22:41;;;;;;;12.77;8.20;;;10.50;99.90;;;;;;5043524;28;20708;-89
2022/10/25 07:25:08;;;;;;;9.53;8.63;;;10.10;99.90;;;;;;5046581;28;20624;-88
2022/10/25 07:27:37;;;;;;;14.83;8.97;;;10.60;99.90;;;;;;5045033;28;20669;-88
2022/10/25 07:30:04;;;;;;;9.80;8.47;;;10.50;99.90;;;;;;5045006;28;21226;-88
2022/10/25 07:32:43;;;;;;;14.20;8.13;;;11.00;99.90;;;;;;5058792;28;20713;-88
2022/10/25 07:35:09;;;;;;;16.03;8.70;;;10.90;99.90;;;;;;5020416;28;20630;-88
2022/10/25 07:37:36;;;;;;;8.67;7.10;;;10.90;99.90;;;;;;5046104;28;20633;-89
2022/10/25 07:40:04;;;;;;;9.23;6.17;;;10.60;99.90;;;;;;5048534;28;20660;-90
2022/10/25 07:42:30;;;;;;;11.63;7.50;;;11.00;99.90;;;;;;5041831;28;20736;-88
2022/10/25 07:44:59;;;;;;;10.17;7.10;;;10.70;99.90;;;;;;5042031;28;20618;-88
2022/10/25 07:47:26;;;;;;;8.20;7.37;;;10.90;99.90;;;;;;5041592;28;20668;-90
2022/10/25 07:49:56;;;;;;;13.13;7.03;;;11.50;99.90;;;;;;5045779;28;21000;-89
2022/10/25 07:52:24;;;;;;;19.63;8.00;;;11.20;99.90;;;;;;5040475;28;20672;-90
2022/10/25 07:54:53;;;;;;;11.40;7.07;;;11.20;99.90;;;;;;5046220;28;20630;-89
2022/10/25 07:57:20;;;;;;;7.23;6.43;;;11.60;99.90;;;;;;5043784;28;20702;-89
2022/10/25 07:59:47;;;;;;;7.47;6.40;;;11.80;99.90;;;;;;5046027;28;20662;-89
2022/10/25 08:02:16;;;;;;;10.80;6.60;;;11.90;99.90;;;;;;5044585;28;20625;-89
2022/10/25 08:04:43;;;;;;;10.00;7.70;;;11.90;99.90;;;;;;5042839;28;20676;-88
2022/10/25 08:07:09;;;;;;;14.27;8.53;;;11.90;99.90;;;;;;5047461;28;20691;-89
2022/10/25 08:09:39;;;;;;;8.33;7.53;;;11.60;99.90;;;;;;5045688;28;20649;-89
2022/10/25 08:12:08;;;;;;;9.13;7.67;;;12.00;99.90;;;;;;5047673;28;20642;-90
2022/10/25 08:14:36;;;;;;;11.00;7.87;;;12.10;99.90;;;;;;5045317;28;21453;-89
2022/10/25 08:17:03;;;;;;;10.40;7.20;;;11.90;99.90;;;;;;5033001;28;21194;-88
2022/10/25 08:19:31;;;;;;;10.00;7.57;;;11.80;99.90;;;;;;5045599;28;20626;-89
2022/10/25 08:21:58;;;;;;;7.43;6.70;;;12.30;99.90;;;;;;5046216;28;20725;-90
2022/10/25 08:24:25;;;;;;;11.40;6.60;;;12.50;99.90;;;;;;5047103;28;20625;-90
2022/10/25 08:26:52;;;;;;;8.63;6.20;;;12.60;99.90;;;;;;5048300;28;20630;-89
2022/10/25 08:29:19;;;;;;;7.70;4.63;;;12.40;99.90;;;;;;5045390;28;20665;-89
2022/10/25 08:31:46;;;;;;;6.27;4.10;;;12.80;99.90;;;;;;5052797;28;20725;-90
2022/10/25 08:34:13;;;;;;;9.53;4.20;;;12.90;99.90;;;;;;5048488;28;20633;-90
2022/10/25 08:36:41;;;;;;;6.73;3.10;;;13.10;99.90;;;;;;5043575;28;20754;-89
2022/10/25 08:39:08;;;;;;;4.27;3.23;;;13.10;99.90;;;;;;5047179;28;20622;-90
2022/10/25 08:41:46;;;;;;;4.33;2.90;;;13.50;99.90;;;;;;5045778;28;21095;-90
2022/10/25 08:44:18;;;;;;;4.10;2.80;;;13.50;99.90;;;;;;5049891;28;20951;-90
2022/10/25 08:46:55;;;;;;;3.73;3.20;;;13.70;99.90;;;;;;5051577;28;20626;-90
2022/10/25 08:49:28;;;;;;;2.43;2.20;;;13.80;99.90;;;;;;5026412;28;20678;-89
2022/10/25 08:51:59;;;;;;;6.10;3.57;;;13.70;99.90;;;;;;5027542;28;21179;-88
2022/10/25 08:54:29;;;;;;;2.50;1.90;;;13.80;99.90;;;;;;5045084;28;21228;-90
2022/10/25 08:57:05;;;;;;;8.20;2.27;;;13.90;99.90;;;;;;5046069;28;20610;-90
2022/10/25 08:59:37;;;;;;;5.17;2.80;;;13.80;99.90;;;;;;5044207;28;20664;-90
2022/10/25 09:02:15;;;;;;;4.23;2.73;;;13.90;99.90;;;;;;5044326;28;20625;-90
2022/10/25 09:04:42;;;;;;;3.93;2.60;;;14.10;99.90;;;;;;5044530;28;20626;-90
2022/10/25 09:07:18;;;;;;;4.43;2.30;;;14.30;99.90;;;;;;5049874;28;20627;-90
2022/10/25 09:09:53;;;;;;;4.10;2.60;;;14.40;99.90;;;;;;5044716;28;20681;-90
2022/10/25 09:12:27;;;;;;;6.23;3.17;;;14.40;99.90;;;;;;5043864;28;20706;-91
2022/10/25 09:15:01;;;;;;;3.80;2.30;;;14.40;99.90;;;;;;5038217;28;20630;-90
2022/10/25 09:17:36;;;;;;;2.73;2.10;;;14.80;99.90;;;;;;5046617;28;20625;-91
2022/10/25 09:20:06;;;;;;;4.50;2.13;;;14.70;99.90;;;;;;5040363;28;20650;-91
2022/10/25 09:22:45;;;;;;;4.10;2.57;;;15.00;99.90;;;;;;5045121;28;20653;-89
2022/10/25 09:25:23;;;;;;;5.00;2.43;;;15.50;99.90;;;;;;5006205;28;20642;-91
2022/10/25 09:27:59;;;;;;;5.60;2.23;;;16.10;99.90;;;;;;5046259;28;20646;-90
2022/10/25 09:30:27;;;;;;;5.03;1.93;;;16.10;99.90;;;;;;5044607;28;20655;-90
2022/10/25 09:33:00;;;;;;;4.77;1.90;;;16.20;99.90;;;;;;5045868;28;21216;-93
2022/10/25 09:35:33;;;;;;;2.67;2.13;;;16.50;99.90;;;;;;5024171;28;21089;-89
2022/10/25 09:38:08;;;;;;;6.33;1.83;;;16.70;99.90;;;;;;5041425;28;21209;-91
2022/10/25 09:40:44;;;;;;;3.90;1.57;;;17.90;99.90;;;;;;5044122;28;20664;-90
2022/10/25 09:43:17;;;;;;;1.40;1.27;;;18.50;99.90;;;;;;5045238;28;20617;-89
2022/10/25 09:45:48;;;;;;;5.70;1.67;;;17.50;99.90;;;;;;5047724;28;20694;-90
2022/10/25 09:48:21;;;;;;;3.40;1.50;;;17.80;99.90;;;;;;5048430;28;21062;-90
2022/10/25 09:50:53;;;;;;;2.10;1.90;;;18.50;99.90;;;;;;5048757;28;20653;-90
2022/10/25 09:53:22;;;;;;;3.30;1.70;;;18.70;99.90;;;;;;5023324;28;20630;-89
2022/10/25 09:55:52;;;;;;;2.77;1.70;;;19.20;99.90;;;;;;5052250;28;20618;-90
2022/10/25 09:58:24;;;;;;;5.23;1.97;;;19.20;99.90;;;;;;5048011;28;20636;-90
2022/10/25 10:00:53;;;;;;;3.77;2.10;;;17.90;99.90;;;;;;5045830;28;21227;-90
2022/10/25 10:03:22;;;;;;;2.43;1.60;;;18.70;99.90;;;;;;5052859;28;20626;-92
2022/10/25 10:05:55;;;;;;;3.17;1.87;;;19.00;99.90;;;;;;5048253;28;20637;-91
2022/10/25 10:08:25;;;;;;;2.70;2.00;;;18.70;99.90;;;;;;5047708;28;20726;-91
2022/10/25 10:10:59;;;;;;;1.40;1.30;;;18.60;99.90;;;;;;5047870;28;20746;-92
2022/10/25 10:16:34;;;;;;;2.40;1.27;;;21.50;99.90;;;;;;5040934;28;20642;-91
2022/10/25 10:19:17;;;;;;;2.80;1.73;;;21.40;99.90;;;;;;5049790;28;20683;-90
2022/10/25 10:21:47;;;;;;;5.97;2.00;;;20.10;99.90;;;;;;5045664;28;20695;-91
2022/10/25 10:24:22;;;;;;;6.73;2.30;;;19.90;99.90;;;;;;5051539;28;20601;-91
2022/10/25 10:26:54;;;;;;;2.23;1.70;;;21.80;99.90;;;;;;5047318;28;21220;-90
2022/10/25 10:29:24;;;;;;;6.53;2.10;;;22.30;99.90;;;;;;5049717;28;20657;-90
2022/10/25 10:31:53;;;;;;;3.23;1.43;;;21.30;99.90;;;;;;5042674;28;20636;-91
2022/10/25 10:34:29;;;;;;;3.40;1.47;;;21.10;99.90;;;;;;5046532;28;21543;-91
2022/10/25 10:37:04;;;;;;;4.37;1.50;;;22.10;99.90;;;;;;5043149;28;20641;-91
2022/10/25 10:39:33;;;;;;;2.57;1.30;;;23.40;99.90;;;;;;5047413;28;20656;-90
2022/10/25 10:42:02;;;;;;;3.37;1.93;;;23.10;99.90;;;;;;5023619;28;20629;-92
2022/10/25 10:44:33;;;;;;;18.83;1.97;;;22.30;99.90;;;;;;5028131;28;20660;-92
2022/10/25 10:47:02;;;;;;;5.30;1.33;;;23.90;99.90;;;;;;5047035;28;20628;-91
2022/10/25 10:49:36;;;;;;;4.07;1.83;;;24.30;97.20;;;;;;5046733;28;20673;-91
2022/10/25 10:52:05;;;;;;;5.80;2.00;;;24.20;95.80;;;;;;5043465;28;20617;-91
2022/10/25 10:54:38;;;;;;;2.23;1.60;;;24.90;92.80;;;;;;5045427;28;20626;-92
2022/10/25 10:57:07;;;;;;;3.77;1.83;;;25.10;94.40;;;;;;5042352;28;20688;-91
2022/10/25 10:59:40;;;;;;;4.20;1.60;;;25.70;90.00;;;;;;5048397;28;20748;-91
2022/10/25 11:02:27;;;;;;;3.07;1.37;;;25.30;93.10;;;;;;5047784;28;21200;-90
2022/10/25 11:04:55;;;;;;;1.73;1.30;;;23.70;92.50;;;;;;5041959;28;21017;-91
2022/10/25 11:07:35;;;;;;;5.80;1.90;;;22.40;99.90;;;;;;5048482;28;20626;-90
2022/10/25 11:10:30;;;;;;;2.63;1.30;;;23.70;96.30;;;;;;5043637;28;20784;-92
2022/10/25 11:13:15;;;;;;;2.60;1.50;;;24.80;94.30;;;;;;5046000;28;20617;-91
2022/10/25 11:16:31;;;;;;;5.57;1.50;;;25.60;87.90;;;;;;5045438;28;20634;-91
2022/10/25 11:19:14;;;;;;;9.40;2.63;;;26.40;81.60;;;;;;5026025;28;20638;-91
2022/10/25 11:22:04;;;;;;;2.10;0.80;;;25.60;85.00;;;;;;5044381;28;20622;-91
2022/10/25 11:24:43;;;;;;;3.93;1.43;;;25.90;76.00;;;;;;5046007;28;20636;-91
2022/10/25 11:27:20;;;;;;;2.60;1.47;;;25.20;80.80;;;;;;5048767;28;20712;-91
2022/10/25 11:30:09;;;;;;;2.20;1.30;;;26.20;80.80;;;;;;5043282;28;20709;-91
2022/10/25 11:33:16;;;;;;;3.30;1.50;;;25.70;80.10;;;;;;5046141;28;20729;-91
2022/10/25 11:36:19;;;;;;;3.60;1.40;;;27.00;74.70;;;;;;5046181;28;20618;-92
2022/10/25 11:38:59;;;;;;;2.77;1.00;;;28.20;66.20;;;;;;5046870;28;20654;-93
2022/10/25 11:41:37;;;;;;;3.10;1.57;;;27.60;65.40;;;;;;5049080;28;20749;-91
2022/10/25 11:44:37;;;;;;;2.33;1.33;;;27.40;64.90;;;;;;5048777;28;21029;-91
2022/10/25 11:47:15;;;;;;;2.70;1.30;;;27.10;67.00;;;;;;5044414;28;20716;-92
2022/10/25 11:49:56;;;;;;;1.50;0.90;;;27.10;63.80;;;;;;5045964;28;20792;-91
2022/10/25 11:52:45;;;;;;;3.80;0.97;;;27.80;63.00;;;;;;5045910;28;20642;-91
2022/10/25 11:55:21;;;;;;;5.17;1.00;;;25.10;67.90;;;;;;5042845;28;20658;-90
2022/10/25 11:57:54;;;;;;;1.67;1.03;;;25.20;71.40;;;;;;5052462;28;20629;-92
2022/10/25 12:00:24;;;;;;;5.00;1.20;;;26.30;67.40;;;;;;5052168;28;20737;-90
2022/10/25 12:03:07;;;;;;;3.20;0.80;;;27.10;64.40;;;;;;5045830;28;20625;-89
2022/10/25 12:05:42;;;;;;;2.50;0.80;;;28.30;60.50;;;;;;5048805;28;20629;-90
2022/10/25 12:08:19;;;;;;;1.43;0.90;;;28.80;58.20;;;;;;5047852;28;21102;-90
2022/10/25 12:10:51;;;;;;;2.70;1.17;;;28.40;57.20;;;;;;5047911;28;20971;-90
2022/10/25 12:13:21;;;;;;;3.00;1.20;;;27.40;59.40;;;;;;5044924;28;20657;-91
2022/10/25 12:15:53;;;;;;;2.20;1.23;;;27.00;60.20;;;;;;5050926;28;20634;-90
2022/10/25 12:18:26;;;;;;;4.10;0.87;;;26.80;63.80;;;;;;5051898;28;20665;-91
2022/10/25 12:20:55;;;;;;;1.70;1.07;;;26.70;61.80;;;;;;5048568;28;20642;-91
2022/10/25 12:23:25;;;;;;;7.17;1.00;;;27.60;59.10;;;;;;5028214;28;20641;-91
2022/10/25 12:25:56;;;;;;;4.13;1.40;;;27.70;59.60;;;;;;5047472;28;20837;-91
2022/10/25 12:28:29;;;;;;;6.43;1.23;;;28.60;57.30;;;;;;5049252;28;21399;-90
2022/10/25 12:31:01;;;;;;;5.70;1.30;;;27.80;57.00;;;;;;5040303;28;20650;-91
2022/10/25 12:33:35;;;;;;;1.80;1.23;;;27.70;58.40;;;;;;5044480;28;20634;-90
2022/10/25 12:36:06;;;;;;;4.10;1.20;;;27.60;58.80;;;;;;5046724;28;20677;-91
2022/10/25 12:38:35;;;;;;;3.87;1.40;;;28.50;57.20;;;;;;5046649;28;20725;-90
2022/10/25 12:41:09;;;;;;;1.27;0.90;;;28.70;54.80;;;;;;5050596;28;20637;-90
2022/10/25 12:43:45;;;;;;;2.83;1.10;;;28.50;53.70;;;;;;5051372;28;20676;-91
2022/10/25 12:46:33;;;;;;;3.03;1.13;;;28.90;52.60;;;;;;5045150;28;20657;-92
2022/10/25 12:49:16;;;;;;;1.33;0.83;;;28.50;53.10;;;;;;5051603;28;21332;-93
2022/10/25 12:52:00;;;;;;;1.23;0.70;;;29.60;50.80;;;;;;5043015;28;20662;-92
2022/10/25 12:55:09;;;;;;;4.53;1.40;;;27.70;52.10;;;;;;5045276;28;20658;-92
2022/10/25 13:00:36;;;;;;;2.23;1.10;;;28.70;52.10;;;;;;5048479;28;20614;-92
2022/10/25 13:03:42;;;;;;;2.00;1.20;;;28.10;51.40;;;;;;5043873;28;20669;-91
2022/10/25 13:06:37;;;;;;;2.60;0.93;;;27.50;53.50;;;;;;5034690;28;20692;-92
2022/10/25 13:09:08;;;;;;;3.03;1.23;;;26.20;53.80;;;;;;5041483;28;20689;-90
2022/10/25 13:11:39;;;;;;;2.67;1.60;;;25.00;63.10;;;;;;5047014;28;20712;-91